sensor_id;sensor_type;location;lat;lon;timestamp;P1;durP1;ratioP1;P2;durP2;ratioP2
9912;SDS011;41380;52.548;13.344;2022-10-13T00:00:28;12.33;;;6.27;;
9912;SDS011;41380;52.548;13.344;2022-10-13T00:02:58;12.87;;;5.83;;
9912;SDS011;41380;52.548;13.344;2022-10-13T00:05:26;10.80;;;5.57;;
9912;SDS011;41380;52.548;13.344;2022-10-13T00:07:52;11.17;;;5.90;;
9912;SDS011;41380;52.548;13.344;2022-10-13T00:10:21;12.10;;;5.90;;
9912;SDS011;41380;52.548;13.344;2022-10-13T00:12:48;12.03;;;6.57;;
9912;SDS011;41380;52.548;13.344;2022-10-13T00:15:15;7.87;;;6.03;;
9912;SDS011;41380;52.548;13.344;2022-10-13T00:17:42;11.70;;;5.67;;
9912;SDS011;41380;52.548;13.344;2022-10-13T00:20:09;11.40;;;5.90;;
9912;SDS011;41380;52.548;13.344;2022-10-13T00:22:37;11.37;;;6.23;;
9912;SDS011;41380;52.548;13.344;2022-10-13T00:25:04;9.93;;;6.03;;
9912;SDS011;41380;52.548;13.344;2022-10-13T00:27:33;13.93;;;6.07;;
9912;SDS011;41380;52.548;13.344;2022-10-13T00:29:59;7.97;;;5.97;;
9912;SDS011;41380;52.548;13.344;2022-10-13T00:32:26;10.33;;;5.37;;
9912;SDS011;41380;52.548;13.344;2022-10-13T00:34:54;8.10;;;5.57;;
9912;SDS011;41380;52.548;13.344;2022-10-13T00:37:22;10.90;;;5.60;;
9912;SDS011;41380;52.548;13.344;2022-10-13T00:39:49;9.33;;;6.20;;
9912;SDS011;41380;52.548;13.344;2022-10-13T00:42:15;10.17;;;6.00;;
9912;SDS011;41380;52.548;13.344;2022-10-13T00:45:01;12.47;;;6.63;;
9912;SDS011;41380;52.548;13.344;2022-10-13T00:47:32;13.43;;;6.37;;
9912;SDS011;41380;52.548;13.344;2022-10-13T00:50:04;9.73;;;5.73;;
9912;SDS011;41380;52.548;13.344;2022-10-13T00:52:32;13.10;;;7.03;;
9912;SDS011;41380;52.548;13.344;2022-10-13T00:54:59;13.00;;;6.17;;
9912;SDS011;41380;52.548;13.344;2022-10-13T00:57:28;11.57;;;6.50;;
9912;SDS011;41380;52.548;13.344;2022-10-13T00:59:55;11.20;;;7.40;;
9912;SDS011;41380;52.548;13.344;2022-10-13T01:02:26;8.67;;;6.50;;
9912;SDS011;41380;52.548;13.344;2022-10-13T01:04:58;12.63;;;6.67;;
9912;SDS011;41380;52.548;13.344;2022-10-13T01:07:26;12.07;;;6.50;;
9912;SDS011;41380;52.548;13.344;2022-10-13T01:09:53;11.87;;;7.07;;
9912;SDS011;41380;52.548;13.344;2022-10-13T01:12:25;9.77;;;6.93;;
9912;SDS011;41380;52.548;13.344;2022-10-13T01:15:02;10.73;;;6.67;;
9912;SDS011;41380;52.548;13.344;2022-10-13T01:17:38;11.23;;;7.00;;
9912;SDS011;41380;52.548;13.344;2022-10-13T01:20:28;13.23;;;6.57;;
9912;SDS011;41380;52.548;13.344;2022-10-13T01:23:17;11.80;;;6.37;;
9912;SDS011;41380;52.548;13.344;2022-10-13T01:26:11;15.90;;;7.53;;
9912;SDS011;41380;52.548;13.344;2022-10-13T01:29:10;9.50;;;6.50;;
9912;SDS011;41380;52.548;13.344;2022-10-13T01:31:46;10.50;;;6.67;;
9912;SDS011;41380;52.548;13.344;2022-10-13T01:34:24;14.67;;;7.57;;
9912;SDS011;41380;52.548;13.344;2022-10-13T01:36:58;8.50;;;6.10;;
9912;SDS011;41380;52.548;13.344;2022-10-13T01:39:32;10.60;;;6.53;;
9912;SDS011;41380;52.548;13.344;2022-10-13T01:42:05;13.43;;;7.53;;
9912;SDS011;41380;52.548;13.344;2022-10-13T01:44:37;12.00;;;7.37;;
9912;SDS011;41380;52.548;13.344;2022-10-13T01:47:09;10.77;;;7.03;;
9912;SDS011;41380;52.548;13.344;2022-10-13T01:49:39;10.77;;;7.37;;
9912;SDS011;41380;52.548;13.344;2022-10-13T01:52:10;16.13;;;7.40;;
9912;SDS011;41380;52.548;13.344;2022-10-13T01:54:40;11.97;;;6.80;;
9912;SDS011;41380;52.548;13.344;2022-10-13T01:59:54;12.33;;;7.37;;
9912;SDS011;41380;52.548;13.344;2022-10-13T02:02:24;13.47;;;7.57;;
9912;SDS011;41380;52.548;13.344;2022-10-13T02:05:02;10.20;;;7.37;;
9912;SDS011;41380;52.548;13.344;2022-10-13T02:07:37;14.30;;;7.13;;
9912;SDS011;41380;52.548;13.344;2022-10-13T02:10:10;15.13;;;7.23;;
9912;SDS011;41380;52.548;13.344;2022-10-13T02:12:43;11.50;;;6.77;;
9912;SDS011;41380;52.548;13.344;2022-10-13T02:15:15;12.57;;;7.53;;
9912;SDS011;41380;52.548;13.344;2022-10-13T02:17:46;14.80;;;7.80;;
9912;SDS011;41380;52.548;13.344;2022-10-13T02:20:12;12.50;;;7.77;;
9912;SDS011;41380;52.548;13.344;2022-10-13T02:22:42;13.10;;;7.50;;
9912;SDS011;41380;52.548;13.344;2022-10-13T02:25:12;11.17;;;7.63;;
9912;SDS011;41380;52.548;13.344;2022-10-13T02:27:39;12.53;;;7.10;;
9912;SDS011;41380;52.548;13.344;2022-10-13T02:30:07;16.43;;;8.00;;
9912;SDS011;41380;52.548;13.344;2022-10-13T02:32:34;10.60;;;7.43;;
9912;SDS011;41380;52.548;13.344;2022-10-13T02:35:03;9.77;;;6.77;;
9912;SDS011;41380;52.548;13.344;2022-10-13T02:37:31;11.87;;;7.63;;
9912;SDS011;41380;52.548;13.344;2022-10-13T02:40:00;10.40;;;7.07;;
9912;SDS011;41380;52.548;13.344;2022-10-13T02:42:27;13.37;;;7.10;;
9912;SDS011;41380;52.548;13.344;2022-10-13T02:44:54;13.17;;;7.50;;
9912;SDS011;41380;52.548;13.344;2022-10-13T02:47:20;14.13;;;8.73;;
9912;SDS011;41380;52.548;13.344;2022-10-13T02:49:49;14.47;;;7.60;;
9912;SDS011;41380;52.548;13.344;2022-10-13T02:52:18;11.10;;;7.47;;
9912;SDS011;41380;52.548;13.344;2022-10-13T02:54:45;10.63;;;7.03;;
9912;SDS011;41380;52.548;13.344;2022-10-13T02:57:12;11.47;;;8.03;;
9912;SDS011;41380;52.548;13.344;2022-10-13T02:59:38;12.40;;;9.30;;
9912;SDS011;41380;52.548;13.344;2022-10-13T03:02:05;15.63;;;8.10;;
9912;SDS011;41380;52.548;13.344;2022-10-13T03:04:35;10.87;;;7.57;;
9912;SDS011;41380;52.548;13.344;2022-10-13T03:07:02;12.17;;;8.77;;
9912;SDS011;41380;52.548;13.344;2022-10-13T03:09:33;11.43;;;8.23;;
9912;SDS011;41380;52.548;13.344;2022-10-13T03:12:02;9.03;;;7.63;;
9912;SDS011;41380;52.548;13.344;2022-10-13T03:14:29;12.63;;;7.87;;
9912;SDS011;41380;52.548;13.344;2022-10-13T03:16:56;12.63;;;7.43;;
9912;SDS011;41380;52.548;13.344;2022-10-13T03:19:23;11.93;;;7.93;;
9912;SDS011;41380;52.548;13.344;2022-10-13T03:21:50;13.83;;;7.87;;
9912;SDS011;41380;52.548;13.344;2022-10-13T03:24:16;14.87;;;8.20;;
9912;SDS011;41380;52.548;13.344;2022-10-13T03:26:45;17.03;;;8.33;;
9912;SDS011;41380;52.548;13.344;2022-10-13T03:29:12;13.50;;;8.13;;
9912;SDS011;41380;52.548;13.344;2022-10-13T03:31:39;14.10;;;8.87;;
9912;SDS011;41380;52.548;13.344;2022-10-13T03:34:07;10.23;;;8.17;;
9912;SDS011;41380;52.548;13.344;2022-10-13T03:36:34;15.07;;;8.77;;
9912;SDS011;41380;52.548;13.344;2022-10-13T03:39:01;11.67;;;8.27;;
9912;SDS011;41380;52.548;13.344;2022-10-13T03:41:28;15.27;;;8.40;;
9912;SDS011;41380;52.548;13.344;2022-10-13T03:43:56;14.47;;;8.07;;
9912;SDS011;41380;52.548;13.344;2022-10-13T03:46:23;11.90;;;8.23;;
9912;SDS011;41380;52.548;13.344;2022-10-13T03:48:53;12.20;;;7.90;;
9912;SDS011;41380;52.548;13.344;2022-10-13T03:51:20;12.43;;;7.90;;
9912;SDS011;41380;52.548;13.344;2022-10-13T03:53:47;15.30;;;8.20;;
9912;SDS011;41380;52.548;13.344;2022-10-13T03:56:16;14.10;;;7.60;;
9912;SDS011;41380;52.548;13.344;2022-10-13T03:58:44;13.73;;;8.43;;
9912;SDS011;41380;52.548;13.344;2022-10-13T04:01:13;14.70;;;7.53;;
9912;SDS011;41380;52.548;13.344;2022-10-13T04:03:40;15.00;;;7.50;;
9912;SDS011;41380;52.548;13.344;2022-10-13T04:06:10;12.83;;;7.47;;
9912;SDS011;41380;52.548;13.344;2022-10-13T04:08:36;12.53;;;8.40;;
9912;SDS011;41380;52.548;13.344;2022-10-13T04:11:05;16.70;;;8.20;;
9912;SDS011;41380;52.548;13.344;2022-10-13T04:13:33;8.50;;;7.60;;
9912;SDS011;41380;52.548;13.344;2022-10-13T04:16:01;14.67;;;9.83;;
9912;SDS011;41380;52.548;13.344;2022-10-13T04:18:30;13.53;;;7.57;;
9912;SDS011;41380;52.548;13.344;2022-10-13T04:20:57;10.80;;;7.87;;
9912;SDS011;41380;52.548;13.344;2022-10-13T04:23:24;12.83;;;8.47;;
9912;SDS011;41380;52.548;13.344;2022-10-13T04:25:51;11.63;;;7.70;;
9912;SDS011;41380;52.548;13.344;2022-10-13T04:28:18;13.20;;;7.60;;
9912;SDS011;41380;52.548;13.344;2022-10-13T04:30:45;15.77;;;8.67;;
9912;SDS011;41380;52.548;13.344;2022-10-13T04:33:15;11.17;;;7.97;;
9912;SDS011;41380;52.548;13.344;2022-10-13T04:35:43;9.43;;;7.27;;
9912;SDS011;41380;52.548;13.344;2022-10-13T04:38:10;10.13;;;7.63;;
9912;SDS011;41380;52.548;13.344;2022-10-13T04:40:37;11.70;;;8.00;;
9912;SDS011;41380;52.548;13.344;2022-10-13T04:43:03;9.60;;;7.47;;
9912;SDS011;41380;52.548;13.344;2022-10-13T04:45:30;12.93;;;8.30;;
9912;SDS011;41380;52.548;13.344;2022-10-13T04:47:57;14.37;;;8.80;;
9912;SDS011;41380;52.548;13.344;2022-10-13T04:50:26;9.40;;;7.33;;
9912;SDS011;41380;52.548;13.344;2022-10-13T04:52:55;11.47;;;7.63;;
9912;SDS011;41380;52.548;13.344;2022-10-13T04:55:21;11.63;;;7.80;;
9912;SDS011;41380;52.548;13.344;2022-10-13T04:57:48;13.80;;;7.67;;
9912;SDS011;41380;52.548;13.344;2022-10-13T05:00:15;11.47;;;8.07;;
9912;SDS011;41380;52.548;13.344;2022-10-13T05:02:42;15.37;;;8.60;;
9912;SDS011;41380;52.548;13.344;2022-10-13T05:05:09;11.53;;;8.70;;
9912;SDS011;41380;52.548;13.344;2022-10-13T05:07:36;10.80;;;7.53;;
9912;SDS011;41380;52.548;13.344;2022-10-13T05:10:05;13.53;;;8.07;;
9912;SDS011;41380;52.548;13.344;2022-10-13T05:12:33;12.40;;;8.43;;
9912;SDS011;41380;52.548;13.344;2022-10-13T05:15:00;12.90;;;7.90;;
9912;SDS011;41380;52.548;13.344;2022-10-13T05:17:28;11.87;;;8.40;;
9912;SDS011;41380;52.548;13.344;2022-10-13T05:19:55;14.43;;;9.10;;
9912;SDS011;41380;52.548;13.344;2022-10-13T05:22:22;14.20;;;9.03;;
9912;SDS011;41380;52.548;13.344;2022-10-13T05:24:50;12.50;;;8.37;;
9912;SDS011;41380;52.548;13.344;2022-10-13T05:27:18;13.73;;;9.03;;
9912;SDS011;41380;52.548;13.344;2022-10-13T05:29:45;13.07;;;7.90;;
9912;SDS011;41380;52.548;13.344;2022-10-13T05:32:12;15.20;;;9.80;;
9912;SDS011;41380;52.548;13.344;2022-10-13T05:34:39;11.13;;;8.27;;
9912;SDS011;41380;52.548;13.344;2022-10-13T05:37:06;13.97;;;9.90;;
9912;SDS011;41380;52.548;13.344;2022-10-13T05:39:32;13.77;;;8.70;;
9912;SDS011;41380;52.548;13.344;2022-10-13T05:41:59;13.83;;;9.20;;
9912;SDS011;41380;52.548;13.344;2022-10-13T05:44:28;13.17;;;10.10;;
9912;SDS011;41380;52.548;13.344;2022-10-13T05:46:55;15.73;;;9.27;;
9912;SDS011;41380;52.548;13.344;2022-10-13T05:49:22;14.23;;;9.00;;
9912;SDS011;41380;52.548;13.344;2022-10-13T05:51:49;12.50;;;8.73;;
9912;SDS011;41380;52.548;13.344;2022-10-13T05:54:20;14.53;;;8.87;;
9912;SDS011;41380;52.548;13.344;2022-10-13T05:56:50;14.80;;;9.53;;
9912;SDS011;41380;52.548;13.344;2022-10-13T05:59:21;14.67;;;9.37;;
9912;SDS011;41380;52.548;13.344;2022-10-13T06:01:53;12.90;;;9.30;;
9912;SDS011;41380;52.548;13.344;2022-10-13T06:04:21;14.53;;;9.90;;
9912;SDS011;41380;52.548;13.344;2022-10-13T06:06:50;14.90;;;9.60;;
9912;SDS011;41380;52.548;13.344;2022-10-13T06:09:17;15.13;;;9.30;;
9912;SDS011;41380;52.548;13.344;2022-10-13T06:11:45;13.10;;;10.03;;
9912;SDS011;41380;52.548;13.344;2022-10-13T06:14:13;12.87;;;9.13;;
9912;SDS011;41380;52.548;13.344;2022-10-13T06:16:40;13.43;;;8.70;;
9912;SDS011;41380;52.548;13.344;2022-10-13T06:19:08;15.80;;;10.60;;
9912;SDS011;41380;52.548;13.344;2022-10-13T06:21:35;16.63;;;9.23;;
9912;SDS011;41380;52.548;13.344;2022-10-13T06:24:02;16.73;;;9.60;;
9912;SDS011;41380;52.548;13.344;2022-10-13T06:26:31;26.73;;;11.50;;
9912;SDS011;41380;52.548;13.344;2022-10-13T06:28:58;17.07;;;10.23;;
9912;SDS011;41380;52.548;13.344;2022-10-13T06:31:24;16.63;;;10.60;;
9912;SDS011;41380;52.548;13.344;2022-10-13T06:33:51;17.17;;;10.23;;
9912;SDS011;41380;52.548;13.344;2022-10-13T06:36:19;18.83;;;10.07;;
9912;SDS011;41380;52.548;13.344;2022-10-13T06:38:46;13.50;;;10.37;;
9912;SDS011;41380;52.548;13.344;2022-10-13T06:41:13;18.13;;;10.53;;
9912;SDS011;41380;52.548;13.344;2022-10-13T06:43:41;15.67;;;10.57;;
9912;SDS011;41380;52.548;13.344;2022-10-13T06:46:08;18.77;;;11.40;;
9912;SDS011;41380;52.548;13.344;2022-10-13T06:48:34;19.33;;;11.07;;
9912;SDS011;41380;52.548;13.344;2022-10-13T06:51:02;14.83;;;10.63;;
9912;SDS011;41380;52.548;13.344;2022-10-13T06:53:32;16.67;;;10.90;;
9912;SDS011;41380;52.548;13.344;2022-10-13T06:56:02;18.17;;;11.07;;
9912;SDS011;41380;52.548;13.344;2022-10-13T06:58:30;16.30;;;10.87;;
9912;SDS011;41380;52.548;13.344;2022-10-13T07:00:59;15.67;;;11.07;;
9912;SDS011;41380;52.548;13.344;2022-10-13T07:03:26;16.03;;;11.03;;
9912;SDS011;41380;52.548;13.344;2022-10-13T07:05:53;17.47;;;10.87;;
9912;SDS011;41380;52.548;13.344;2022-10-13T07:08:27;15.10;;;10.70;;
9912;SDS011;41380;52.548;13.344;2022-10-13T07:10:55;16.00;;;10.10;;
9912;SDS011;41380;52.548;13.344;2022-10-13T07:13:23;16.67;;;11.27;;
9912;SDS011;41380;52.548;13.344;2022-10-13T07:15:50;14.77;;;11.37;;
9912;SDS011;41380;52.548;13.344;2022-10-13T07:18:17;18.87;;;11.20;;
9912;SDS011;41380;52.548;13.344;2022-10-13T07:20:44;16.37;;;11.33;;
9912;SDS011;41380;52.548;13.344;2022-10-13T07:23:12;17.40;;;11.13;;
9912;SDS011;41380;52.548;13.344;2022-10-13T07:25:39;19.30;;;11.50;;
9912;SDS011;41380;52.548;13.344;2022-10-13T07:28:07;15.47;;;11.40;;
9912;SDS011;41380;52.548;13.344;2022-10-13T07:30:34;17.60;;;11.13;;
9912;SDS011;41380;52.548;13.344;2022-10-13T07:33:04;20.07;;;11.17;;
9912;SDS011;41380;52.548;13.344;2022-10-13T07:35:36;18.40;;;11.93;;
9912;SDS011;41380;52.548;13.344;2022-10-13T07:38:07;18.53;;;11.77;;
9912;SDS011;41380;52.548;13.344;2022-10-13T07:40:34;17.93;;;11.97;;
9912;SDS011;41380;52.548;13.344;2022-10-13T07:43:03;16.17;;;11.70;;
9912;SDS011;41380;52.548;13.344;2022-10-13T07:45:33;24.03;;;20.60;;
9912;SDS011;41380;52.548;13.344;2022-10-13T07:48:00;19.70;;;15.53;;
9912;SDS011;41380;52.548;13.344;2022-10-13T07:50:27;17.53;;;13.03;;
9912;SDS011;41380;52.548;13.344;2022-10-13T07:52:54;17.77;;;11.83;;
9912;SDS011;41380;52.548;13.344;2022-10-13T07:55:21;19.20;;;12.27;;
9912;SDS011;41380;52.548;13.344;2022-10-13T07:57:50;19.33;;;11.60;;
9912;SDS011;41380;52.548;13.344;2022-10-13T08:00:17;18.53;;;11.43;;
9912;SDS011;41380;52.548;13.344;2022-10-13T08:02:49;18.00;;;11.83;;
9912;SDS011;41380;52.548;13.344;2022-10-13T08:05:16;18.65;;;12.23;;
9912;SDS011;41380;52.548;13.344;2022-10-13T08:07:43;19.27;;;13.15;;
9912;SDS011;41380;52.548;13.344;2022-10-13T08:10:10;16.07;;;11.83;;
9912;SDS011;41380;52.548;13.344;2022-10-13T08:12:37;15.70;;;12.43;;
9912;SDS011;41380;52.548;13.344;2022-10-13T08:15:05;18.83;;;12.40;;
9912;SDS011;41380;52.548;13.344;2022-10-13T08:17:33;19.03;;;12.20;;
9912;SDS011;41380;52.548;13.344;2022-10-13T08:20:02;16.08;;;12.27;;
9912;SDS011;41380;52.548;13.344;2022-10-13T08:22:33;18.27;;;12.05;;
9912;SDS011;41380;52.548;13.344;2022-10-13T08:25:00;16.52;;;12.23;;
9912;SDS011;41380;52.548;13.344;2022-10-13T08:27:27;19.05;;;12.50;;
9912;SDS011;41380;52.548;13.344;2022-10-13T08:29:55;14.07;;;11.27;;
9912;SDS011;41380;52.548;13.344;2022-10-13T08:32:21;18.63;;;12.35;;
9912;SDS011;41380;52.548;13.344;2022-10-13T08:34:48;15.48;;;12.07;;
9912;SDS011;41380;52.548;13.344;2022-10-13T08:37:17;16.55;;;12.48;;
9912;SDS011;41380;52.548;13.344;2022-10-13T08:39:46;15.27;;;11.77;;
9912;SDS011;41380;52.548;13.344;2022-10-13T08:42:13;16.63;;;12.65;;
9912;SDS011;41380;52.548;13.344;2022-10-13T08:44:44;16.73;;;12.23;;
9912;SDS011;41380;52.548;13.344;2022-10-13T08:47:19;15.52;;;11.90;;
9912;SDS011;41380;52.548;13.344;2022-10-13T08:49:55;15.35;;;12.40;;
9912;SDS011;41380;52.548;13.344;2022-10-13T08:52:27;20.63;;;12.82;;
9912;SDS011;41380;52.548;13.344;2022-10-13T08:55:07;14.50;;;11.05;;
9912;SDS011;41380;52.548;13.344;2022-10-13T08:57:41;15.70;;;12.02;;
9912;SDS011;41380;52.548;13.344;2022-10-13T09:00:09;19.52;;;12.85;;
9912;SDS011;41380;52.548;13.344;2022-10-13T09:02:37;18.10;;;12.18;;
9912;SDS011;41380;52.548;13.344;2022-10-13T09:05:09;16.45;;;12.02;;
9912;SDS011;41380;52.548;13.344;2022-10-13T09:07:42;19.17;;;12.88;;
9912;SDS011;41380;52.548;13.344;2022-10-13T09:10:11;18.40;;;13.82;;
9912;SDS011;41380;52.548;13.344;2022-10-13T09:12:39;18.88;;;12.18;;
9912;SDS011;41380;52.548;13.344;2022-10-13T09:15:07;16.90;;;12.05;;
9912;SDS011;41380;52.548;13.344;2022-10-13T09:18:06;19.02;;;12.68;;
9912;SDS011;41380;52.548;13.344;2022-10-13T09:20:35;14.18;;;12.13;;
9912;SDS011;41380;52.548;13.344;2022-10-13T09:23:04;21.67;;;13.73;;
9912;SDS011;41380;52.548;13.344;2022-10-13T09:25:43;16.83;;;12.40;;
9912;SDS011;41380;52.548;13.344;2022-10-13T09:28:15;15.10;;;12.50;;
9912;SDS011;41380;52.548;13.344;2022-10-13T09:30:59;17.42;;;13.35;;
9912;SDS011;41380;52.548;13.344;2022-10-13T09:33:27;14.98;;;12.60;;
9912;SDS011;41380;52.548;13.344;2022-10-13T09:36:13;18.40;;;12.77;;
9912;SDS011;41380;52.548;13.344;2022-10-13T09:39:03;21.45;;;13.73;;
9912;SDS011;41380;52.548;13.344;2022-10-13T09:41:32;17.38;;;13.07;;
9912;SDS011;41380;52.548;13.344;2022-10-13T09:44:00;15.52;;;12.25;;
9912;SDS011;41380;52.548;13.344;2022-10-13T09:46:35;17.02;;;12.65;;
9912;SDS011;41380;52.548;13.344;2022-10-13T09:49:20;18.45;;;13.23;;
9912;SDS011;41380;52.548;13.344;2022-10-13T09:51:58;19.52;;;13.30;;
9912;SDS011;41380;52.548;13.344;2022-10-13T09:54:32;21.10;;;12.88;;
9912;SDS011;41380;52.548;13.344;2022-10-13T09:57:06;16.27;;;12.43;;
9912;SDS011;41380;52.548;13.344;2022-10-13T09:59:40;25.85;;;13.48;;
9912;SDS011;41380;52.548;13.344;2022-10-13T10:02:14;17.75;;;13.75;;
9912;SDS011;41380;52.548;13.344;2022-10-13T10:04:46;18.73;;;11.50;;
9912;SDS011;41380;52.548;13.344;2022-10-13T10:07:15;14.88;;;11.98;;
9912;SDS011;41380;52.548;13.344;2022-10-13T10:09:50;16.10;;;13.10;;
9912;SDS011;41380;52.548;13.344;2022-10-13T10:12:22;16.98;;;13.13;;
9912;SDS011;41380;52.548;13.344;2022-10-13T10:14:54;15.98;;;12.30;;
9912;SDS011;41380;52.548;13.344;2022-10-13T10:17:22;17.75;;;13.50;;
9912;SDS011;41380;52.548;13.344;2022-10-13T10:20:02;18.73;;;13.48;;
9912;SDS011;41380;52.548;13.344;2022-10-13T10:22:43;17.63;;;13.40;;
9912;SDS011;41380;52.548;13.344;2022-10-13T10:25:23;18.08;;;12.82;;
9912;SDS011;41380;52.548;13.344;2022-10-13T10:28:04;15.93;;;13.45;;
9912;SDS011;41380;52.548;13.344;2022-10-13T10:30:42;17.30;;;13.55;;
9912;SDS011;41380;52.548;13.344;2022-10-13T10:33:15;21.77;;;13.90;;
9912;SDS011;41380;52.548;13.344;2022-10-13T10:35:46;19.25;;;14.30;;
9912;SDS011;41380;52.548;13.344;2022-10-13T10:38:23;16.95;;;15.00;;
9912;SDS011;41380;52.548;13.344;2022-10-13T10:41:03;17.08;;;14.48;;
9912;SDS011;41380;52.548;13.344;2022-10-13T10:43:44;19.05;;;13.27;;
9912;SDS011;41380;52.548;13.344;2022-10-13T10:46:16;17.77;;;13.68;;
9912;SDS011;41380;52.548;13.344;2022-10-13T10:48:44;17.70;;;12.98;;
9912;SDS011;41380;52.548;13.344;2022-10-13T10:51:14;23.33;;;14.07;;
9912;SDS011;41380;52.548;13.344;2022-10-13T10:53:46;18.88;;;14.52;;
9912;SDS011;41380;52.548;13.344;2022-10-13T10:56:21;18.13;;;14.23;;
9912;SDS011;41380;52.548;13.344;2022-10-13T10:58:58;17.10;;;14.13;;
9912;SDS011;41380;52.548;13.344;2022-10-13T11:01:31;17.60;;;13.05;;
9912;SDS011;41380;52.548;13.344;2022-10-13T11:04:18;21.38;;;13.40;;
9912;SDS011;41380;52.548;13.344;2022-10-13T11:07:00;17.60;;;13.60;;
9912;SDS011;41380;52.548;13.344;2022-10-13T11:15:39;17.23;;;13.15;;
9912;SDS011;41380;52.548;13.344;2022-10-13T11:21:13;19.25;;;12.68;;
9912;SDS011;41380;52.548;13.344;2022-10-13T11:23:42;14.63;;;11.32;;
9912;SDS011;41380;52.548;13.344;2022-10-13T11:26:19;16.17;;;12.27;;
9912;SDS011;41380;52.548;13.344;2022-10-13T11:28:58;16.88;;;12.02;;
9912;SDS011;41380;52.548;13.344;2022-10-13T11:31:29;14.93;;;12.75;;
9912;SDS011;41380;52.548;13.344;2022-10-13T11:34:25;13.68;;;11.85;;
9912;SDS011;41380;52.548;13.344;2022-10-13T11:36:55;14.18;;;11.45;;
9912;SDS011;41380;52.548;13.344;2022-10-13T11:39:33;18.13;;;12.85;;
9912;SDS011;41380;52.548;13.344;2022-10-13T11:42:20;15.27;;;12.65;;
9912;SDS011;41380;52.548;13.344;2022-10-13T11:45:05;15.02;;;11.32;;
9912;SDS011;41380;52.548;13.344;2022-10-13T11:47:58;15.50;;;12.50;;
9912;SDS011;41380;52.548;13.344;2022-10-13T11:51:08;15.52;;;11.13;;
9912;SDS011;41380;52.548;13.344;2022-10-13T11:53:49;15.80;;;10.40;;
9912;SDS011;41380;52.548;13.344;2022-10-13T11:56:21;14.35;;;10.57;;
9912;SDS011;41380;52.548;13.344;2022-10-13T11:58:57;9.68;;;8.68;;
9912;SDS011;41380;52.548;13.344;2022-10-13T12:01:26;13.35;;;8.15;;
9912;SDS011;41380;52.548;13.344;2022-10-13T12:03:53;9.70;;;8.00;;
9912;SDS011;41380;52.548;13.344;2022-10-13T12:09:06;12.00;;;7.72;;
9912;SDS011;41380;52.548;13.344;2022-10-13T12:11:42;10.00;;;8.05;;
9912;SDS011;41380;52.548;13.344;2022-10-13T12:14:17;9.55;;;7.78;;
9912;SDS011;41380;52.548;13.344;2022-10-13T12:16:53;8.43;;;7.22;;
9912;SDS011;41380;52.548;13.344;2022-10-13T12:19:22;11.77;;;8.05;;
9912;SDS011;41380;52.548;13.344;2022-10-13T12:21:51;15.15;;;7.63;;
9912;SDS011;41380;52.548;13.344;2022-10-13T12:24:20;10.13;;;7.38;;
9912;SDS011;41380;52.548;13.344;2022-10-13T12:26:50;13.27;;;7.70;;
9912;SDS011;41380;52.548;13.344;2022-10-13T12:29:18;10.10;;;7.47;;
9912;SDS011;41380;52.548;13.344;2022-10-13T12:31:48;11.15;;;6.65;;
9912;SDS011;41380;52.548;13.344;2022-10-13T12:34:19;12.40;;;8.38;;
9912;SDS011;41380;52.548;13.344;2022-10-13T12:36:53;11.15;;;6.68;;
9912;SDS011;41380;52.548;13.344;2022-10-13T12:39:22;11.48;;;7.15;;
9912;SDS011;41380;52.548;13.344;2022-10-13T12:41:50;9.30;;;6.25;;
9912;SDS011;41380;52.548;13.344;2022-10-13T12:44:19;11.02;;;6.70;;
9912;SDS011;41380;52.548;13.344;2022-10-13T12:46:49;11.65;;;9.02;;
9912;SDS011;41380;52.548;13.344;2022-10-13T12:49:21;12.55;;;8.13;;
9912;SDS011;41380;52.548;13.344;2022-10-13T12:51:51;12.15;;;7.30;;
9912;SDS011;41380;52.548;13.344;2022-10-13T12:54:25;10.65;;;7.03;;
9912;SDS011;41380;52.548;13.344;2022-10-13T12:56:55;12.48;;;7.00;;
9912;SDS011;41380;52.548;13.344;2022-10-13T12:59:24;11.82;;;7.22;;
9912;SDS011;41380;52.548;13.344;2022-10-13T13:01:58;11.05;;;7.10;;
9912;SDS011;41380;52.548;13.344;2022-10-13T13:04:29;12.00;;;7.78;;
9912;SDS011;41380;52.548;13.344;2022-10-13T13:07:04;8.50;;;6.70;;
9912;SDS011;41380;52.548;13.344;2022-10-13T13:09:58;11.02;;;7.88;;
9912;SDS011;41380;52.548;13.344;2022-10-13T13:12:41;13.68;;;8.90;;
9912;SDS011;41380;52.548;13.344;2022-10-13T13:15:29;9.88;;;7.15;;
9912;SDS011;41380;52.548;13.344;2022-10-13T13:21:07;10.80;;;7.13;;
9912;SDS011;41380;52.548;13.344;2022-10-13T13:23:40;12.63;;;7.28;;
9912;SDS011;41380;52.548;13.344;2022-10-13T13:26:12;10.35;;;7.55;;
9912;SDS011;41380;52.548;13.344;2022-10-13T13:28:43;9.05;;;6.45;;
9912;SDS011;41380;52.548;13.344;2022-10-13T13:31:18;11.70;;;7.45;;
9912;SDS011;41380;52.548;13.344;2022-10-13T13:33:48;14.25;;;8.52;;
9912;SDS011;41380;52.548;13.344;2022-10-13T13:36:17;10.27;;;7.13;;
9912;SDS011;41380;52.548;13.344;2022-10-13T13:38:45;11.02;;;7.45;;
9912;SDS011;41380;52.548;13.344;2022-10-13T13:41:14;11.27;;;7.18;;
9912;SDS011;41380;52.548;13.344;2022-10-13T13:43:42;10.40;;;7.30;;
9912;SDS011;41380;52.548;13.344;2022-10-13T13:46:11;12.93;;;7.78;;
9912;SDS011;41380;52.548;13.344;2022-10-13T13:48:42;10.35;;;7.72;;
9912;SDS011;41380;52.548;13.344;2022-10-13T13:51:09;11.10;;;7.97;;
9912;SDS011;41380;52.548;13.344;2022-10-13T13:53:46;12.63;;;8.20;;
9912;SDS011;41380;52.548;13.344;2022-10-13T13:56:13;12.70;;;7.97;;
9912;SDS011;41380;52.548;13.344;2022-10-13T13:58:41;10.85;;;8.57;;
9912;SDS011;41380;52.548;13.344;2022-10-13T14:01:11;11.27;;;7.97;;
9912;SDS011;41380;52.548;13.344;2022-10-13T14:03:39;12.75;;;8.82;;
9912;SDS011;41380;52.548;13.344;2022-10-13T14:06:06;12.27;;;7.93;;
9912;SDS011;41380;52.548;13.344;2022-10-13T14:08:35;11.15;;;8.13;;
9912;SDS011;41380;52.548;13.344;2022-10-13T14:11:07;9.52;;;7.72;;
9912;SDS011;41380;52.548;13.344;2022-10-13T14:13:34;13.55;;;7.90;;
9912;SDS011;41380;52.548;13.344;2022-10-13T14:16:01;12.85;;;8.02;;
9912;SDS011;41380;52.548;13.344;2022-10-13T14:18:29;11.70;;;8.13;;
9912;SDS011;41380;52.548;13.344;2022-10-13T14:20:56;10.05;;;8.10;;
9912;SDS011;41380;52.548;13.344;2022-10-13T14:23:23;11.23;;;8.43;;
9912;SDS011;41380;52.548;13.344;2022-10-13T14:25:52;15.90;;;8.05;;
9912;SDS011;41380;52.548;13.344;2022-10-13T14:28:21;10.02;;;8.05;;
9912;SDS011;41380;52.548;13.344;2022-10-13T14:30:48;11.57;;;8.50;;
9912;SDS011;41380;52.548;13.344;2022-10-13T14:33:15;10.02;;;8.25;;
9912;SDS011;41380;52.548;13.344;2022-10-13T14:35:43;12.23;;;8.10;;
9912;SDS011;41380;52.548;13.344;2022-10-13T14:38:11;11.60;;;8.70;;
9912;SDS011;41380;52.548;13.344;2022-10-13T14:40:39;13.13;;;8.35;;
9912;SDS011;41380;52.548;13.344;2022-10-13T14:43:06;9.55;;;7.95;;
9912;SDS011;41380;52.548;13.344;2022-10-13T14:45:34;13.95;;;8.85;;
9912;SDS011;41380;52.548;13.344;2022-10-13T14:48:05;11.32;;;8.32;;
9912;SDS011;41380;52.548;13.344;2022-10-13T14:50:32;9.00;;;7.72;;
9912;SDS011;41380;52.548;13.344;2022-10-13T14:52:59;11.23;;;8.45;;
9912;SDS011;41380;52.548;13.344;2022-10-13T14:55:26;10.85;;;8.63;;
9912;SDS011;41380;52.548;13.344;2022-10-13T14:57:52;10.65;;;8.10;;
9912;SDS011;41380;52.548;13.344;2022-10-13T15:00:20;9.30;;;8.02;;
9912;SDS011;41380;52.548;13.344;2022-10-13T15:02:50;9.63;;;8.00;;
9912;SDS011;41380;52.548;13.344;2022-10-13T15:05:17;13.77;;;8.35;;
9912;SDS011;41380;52.548;13.344;2022-10-13T15:07:44;12.32;;;8.05;;